BAW517 LPFR-EGLL
Flight info
| Callsign | BAW517 |
|---|---|
| Flight time | 2h 37m |
| Altitude | 24000 |
| Route | SOTEX2V SOTEX UP600 PRT/N0451F360 DCT XERES DCT NEXEP DCT ADROX DCT SOSOV DCT ITAFI DCT COQUE DCT KEREB DCT EBOMO DCT OZNOH DCT UPALO/N0438F340 UP87 ROXOG |
| Aircraft | A320/M-SDE3FGIKRWXY/S |
Departure
| Time | 2026-05-05 19:02 |
|---|---|
| Airport | Faro - Gago Coutinho International Airport (LPFR) |
Arrival
| Time | 2026-05-05 21:39 |
|---|---|
| Airport | London Heathrow Airport (EGLL) |
| Time | Latitude | Longitude | Altitude | Speed | Heading |
|---|---|---|---|---|---|
| 2026-05-05 18:29 | 37.01908 | -7.96769 | -7 ft | 0 kts | 9° |
| 2026-05-05 18:45 | 37.01900 | -7.96771 | 21 ft | 4 kts | 9° |
| 2026-05-05 18:46 | 37.01873 | -7.96777 | 22 ft | 4 kts | 9° |
| 2026-05-05 18:46 | 37.01850 | -7.96782 | 21 ft | 4 kts | 1° |
| 2026-05-05 18:46 | 37.01826 | -7.96775 | 21 ft | 4 kts | 310° |
| 2026-05-05 18:46 | 37.01818 | -7.96758 | 24 ft | 0 kts | 281° |
| 2026-05-05 18:49 | 37.01823 | -7.96786 | 24 ft | 2 kts | 281° |
| 2026-05-05 18:49 | 37.01827 | -7.96811 | 20 ft | 7 kts | 281° |
| 2026-05-05 18:50 | 37.01788 | -7.96885 | 20 ft | 13 kts | 190° |
| 2026-05-05 18:50 | 37.01698 | -7.96906 | 20 ft | 11 kts | 187° |
| 2026-05-05 18:50 | 37.01663 | -7.96833 | 20 ft | 12 kts | 99° |
| 2026-05-05 18:50 | 37.01647 | -7.96722 | 20 ft | 14 kts | 100° |
| 2026-05-05 18:51 | 37.01629 | -7.96597 | 20 ft | 15 kts | 100° |
| 2026-05-05 18:51 | 37.01609 | -7.96458 | 20 ft | 17 kts | 100° |
| 2026-05-05 18:51 | 37.01586 | -7.96305 | 20 ft | 19 kts | 101° |
| 2026-05-05 18:51 | 37.01561 | -7.96140 | 20 ft | 20 kts | 100° |
| 2026-05-05 18:52 | 37.01541 | -7.95985 | 21 ft | 26 kts | 98° |
| 2026-05-05 18:52 | 37.01527 | -7.95882 | 22 ft | 7 kts | 99° |
| 2026-05-05 18:52 | 37.01496 | -7.95836 | 20 ft | 8 kts | 159° |
| 2026-05-05 18:52 | 37.01472 | -7.95835 | 20 ft | 2 kts | 184° |
| 2026-05-05 18:53 | 37.01450 | -7.95839 | 20 ft | 4 kts | 188° |
| 2026-05-05 18:53 | 37.01448 | -7.95839 | 20 ft | 0 kts | 188° |
| 2026-05-05 18:53 | 37.01448 | -7.95840 | 20 ft | 0 kts | 188° |
| 2026-05-05 19:00 | 37.01446 | -7.95840 | 20 ft | 2 kts | 188° |
| 2026-05-05 19:00 | 37.01391 | -7.95850 | 20 ft | 14 kts | 188° |
| 2026-05-05 19:01 | 37.01343 | -7.95891 | 20 ft | 8 kts | 282° |
| 2026-05-05 19:01 | 37.01359 | -7.95977 | 21 ft | 17 kts | 280° |
| 2026-05-05 19:01 | 37.01414 | -7.96366 | 21 ft | 84 kts | 279° |
| 2026-05-05 19:01 | 37.01559 | -7.97385 | 55 ft | 145 kts | 281° |
| 2026-05-05 19:02 | 37.01740 | -7.98621 | 788 ft | 146 kts | 286° |
| 2026-05-05 19:02 | 37.01933 | -7.99899 | 1555 ft | 156 kts | 285° |
| 2026-05-05 19:02 | 37.02149 | -8.01314 | 1822 ft | 176 kts | 285° |
| 2026-05-05 19:02 | 37.02390 | -8.02919 | 2048 ft | 199 kts | 286° |
| 2026-05-05 19:03 | 37.02660 | -8.04726 | 2340 ft | 223 kts | 284° |
| 2026-05-05 19:03 | 37.02982 | -8.06725 | 2777 ft | 243 kts | 291° |
| 2026-05-05 19:03 | 37.03928 | -8.08445 | 3464 ft | 244 kts | 328° |
| 2026-05-05 19:03 | 37.05526 | -8.09063 | 4219 ft | 248 kts | 3° |
| 2026-05-05 19:04 | 37.07175 | -8.08388 | 4975 ft | 256 kts | 28° |
| 2026-05-05 19:04 | 37.08829 | -8.07541 | 5759 ft | 260 kts | 8° |
| 2026-05-05 19:04 | 37.10645 | -8.07455 | 6576 ft | 263 kts | 357° |
| 2026-05-05 19:04 | 37.12484 | -8.07635 | 7354 ft | 267 kts | 353° |
| 2026-05-05 19:05 | 37.14343 | -8.07911 | 8105 ft | 272 kts | 352° |
| 2026-05-05 19:05 | 37.16241 | -8.08209 | 8872 ft | 276 kts | 351° |
| 2026-05-05 19:05 | 37.18164 | -8.08498 | 9655 ft | 281 kts | 351° |
| 2026-05-05 19:05 | 37.20099 | -8.08771 | 10315 ft | 288 kts | 351° |
| 2026-05-05 19:06 | 37.22173 | -8.09047 | 10506 ft | 311 kts | 352° |
| 2026-05-05 19:06 | 37.24409 | -8.09330 | 10675 ft | 333 kts | 352° |
| 2026-05-05 19:06 | 37.26751 | -8.09613 | 11160 ft | 342 kts | 352° |
| 2026-05-05 19:06 | 37.29135 | -8.09895 | 11820 ft | 345 kts | 352° |
| 2026-05-05 19:07 | 37.31539 | -8.10176 | 12464 ft | 349 kts | 352° |
| 2026-05-05 19:07 | 37.33179 | -8.10366 | 12922 ft | 351 kts | 352° |
| 2026-05-05 19:07 | 37.36415 | -8.10747 | 13819 ft | 355 kts | 352° |
| 2026-05-05 19:07 | 37.38883 | -8.11038 | 14393 ft | 358 kts | 352° |
| 2026-05-05 19:08 | 37.41378 | -8.11334 | 14955 ft | 362 kts | 352° |
| 2026-05-05 19:08 | 37.43894 | -8.11636 | 15499 ft | 365 kts | 352° |
| 2026-05-05 19:08 | 37.46434 | -8.11943 | 16047 ft | 369 kts | 352° |
| 2026-05-05 19:08 | 37.49001 | -8.12254 | 16593 ft | 372 kts | 352° |
| 2026-05-05 19:09 | 37.51601 | -8.12566 | 17148 ft | 376 kts | 352° |
| 2026-05-05 19:09 | 37.54219 | -8.12880 | 17707 ft | 380 kts | 352° |
| 2026-05-05 19:09 | 37.56861 | -8.13198 | 18274 ft | 384 kts | 352° |
| 2026-05-05 19:09 | 37.59529 | -8.13519 | 18784 ft | 387 kts | 351° |
| 2026-05-05 19:10 | 37.62222 | -8.13842 | 19322 ft | 390 kts | 351° |
| 2026-05-05 19:10 | 37.64945 | -8.14169 | 19858 ft | 393 kts | 351° |
| 2026-05-05 19:10 | 37.67685 | -8.14501 | 20403 ft | 396 kts | 351° |
| 2026-05-05 19:10 | 37.70434 | -8.14835 | 20929 ft | 399 kts | 351° |
| 2026-05-05 19:11 | 37.72274 | -8.15056 | 21261 ft | 401 kts | 351° |
| 2026-05-05 19:11 | 37.75976 | -8.15502 | 21908 ft | 405 kts | 351° |
| 2026-05-05 19:11 | 37.78789 | -8.15844 | 22380 ft | 408 kts | 351° |
| 2026-05-05 19:11 | 37.81625 | -8.16189 | 22841 ft | 410 kts | 351° |
| 2026-05-05 19:12 | 37.83511 | -8.16418 | 23145 ft | 412 kts | 351° |
| 2026-05-05 19:12 | 37.86381 | -8.16768 | 23598 ft | 415 kts | 351° |
| 2026-05-05 19:12 | 37.89266 | -8.17120 | 23974 ft | 418 kts | 351° |
| 2026-05-05 19:12 | 37.92175 | -8.17476 | 24348 ft | 420 kts | 351° |
| 2026-05-05 19:13 | 37.95088 | -8.17833 | 24727 ft | 421 kts | 350° |
| 2026-05-05 19:13 | 37.98010 | -8.18183 | 25113 ft | 423 kts | 350° |
| 2026-05-05 19:13 | 38.00950 | -8.18521 | 25501 ft | 424 kts | 350° |
| 2026-05-05 19:13 | 38.03899 | -8.18844 | 25897 ft | 426 kts | 350° |
| 2026-05-05 19:14 | 38.06856 | -8.19153 | 26298 ft | 427 kts | 350° |
| 2026-05-05 19:14 | 38.09819 | -8.19444 | 26701 ft | 428 kts | 350° |
| 2026-05-05 19:14 | 38.12794 | -8.19719 | 27115 ft | 429 kts | 350° |
| 2026-05-05 19:14 | 38.15739 | -8.19975 | 27525 ft | 430 kts | 350° |
| 2026-05-05 19:15 | 38.18730 | -8.20219 | 27924 ft | 431 kts | 350° |
| 2026-05-05 19:15 | 38.21753 | -8.20457 | 28038 ft | 439 kts | 350° |
| 2026-05-05 19:15 | 38.27904 | -8.20949 | 28043 ft | 444 kts | 350° |
| 2026-05-05 19:16 | 38.34080 | -8.21449 | 28040 ft | 444 kts | 350° |
| 2026-05-05 19:16 | 38.40243 | -8.21954 | 28044 ft | 444 kts | 350° |
| 2026-05-05 19:17 | 38.46407 | -8.22466 | 28040 ft | 443 kts | 350° |
| 2026-05-05 19:17 | 38.52522 | -8.22979 | 28046 ft | 443 kts | 350° |
| 2026-05-05 19:18 | 38.58672 | -8.23501 | 28043 ft | 442 kts | 350° |
| 2026-05-05 19:18 | 38.64760 | -8.24381 | 28052 ft | 442 kts | 342° |
| 2026-05-05 19:19 | 38.70880 | -8.26124 | 28051 ft | 458 kts | 342° |
| 2026-05-05 19:19 | 38.77180 | -8.27922 | 28050 ft | 467 kts | 342° |
| 2026-05-05 19:20 | 38.83547 | -8.29728 | 28053 ft | 468 kts | 342° |
| 2026-05-05 19:20 | 38.89908 | -8.31540 | 28058 ft | 469 kts | 342° |
| 2026-05-05 19:21 | 38.96282 | -8.33365 | 28053 ft | 468 kts | 342° |
| 2026-05-05 19:21 | 39.02603 | -8.35183 | 28060 ft | 468 kts | 343° |
| 2026-05-05 19:22 | 39.08965 | -8.37005 | 28063 ft | 468 kts | 343° |
| 2026-05-05 19:22 | 39.15334 | -8.38829 | 28062 ft | 468 kts | 343° |
| 2026-05-05 19:23 | 39.21734 | -8.40450 | 28059 ft | 470 kts | 346° |
| 2026-05-05 19:23 | 39.28212 | -8.41673 | 28061 ft | 471 kts | 348° |
| 2026-05-05 19:24 | 39.34698 | -8.42835 | 28063 ft | 470 kts | 347° |
| 2026-05-05 19:24 | 39.41163 | -8.44091 | 28066 ft | 470 kts | 347° |
| 2026-05-05 19:25 | 39.47610 | -8.45417 | 28067 ft | 469 kts | 346° |
| 2026-05-05 19:25 | 39.54050 | -8.46737 | 28072 ft | 469 kts | 347° |
| 2026-05-05 19:26 | 39.60493 | -8.48031 | 28069 ft | 468 kts | 347° |
| 2026-05-05 19:26 | 39.66924 | -8.49323 | 28073 ft | 468 kts | 347° |
| 2026-05-05 19:27 | 39.73412 | -8.50279 | 28079 ft | 470 kts | 350° |
| 2026-05-05 19:27 | 39.79938 | -8.50932 | 28084 ft | 470 kts | 351° |
| 2026-05-05 19:28 | 39.86448 | -8.51598 | 28085 ft | 469 kts | 351° |
| 2026-05-05 19:28 | 39.92940 | -8.52363 | 28087 ft | 468 kts | 350° |
| 2026-05-05 19:29 | 39.99424 | -8.53172 | 28083 ft | 468 kts | 350° |
| 2026-05-05 19:29 | 40.05862 | -8.53955 | 28080 ft | 468 kts | 350° |
| 2026-05-05 19:30 | 40.12335 | -8.54733 | 28076 ft | 467 kts | 350° |
| 2026-05-05 19:30 | 40.18815 | -8.55506 | 28082 ft | 467 kts | 350° |
| 2026-05-05 19:31 | 40.25280 | -8.56277 | 28080 ft | 467 kts | 350° |
| 2026-05-05 19:31 | 40.31741 | -8.57049 | 28077 ft | 466 kts | 350° |
| 2026-05-05 19:32 | 40.38200 | -8.57837 | 28077 ft | 465 kts | 350° |
| 2026-05-05 19:32 | 40.44648 | -8.58631 | 28079 ft | 465 kts | 350° |
| 2026-05-05 19:33 | 40.51092 | -8.59411 | 28078 ft | 465 kts | 350° |
| 2026-05-05 19:33 | 40.57481 | -8.60186 | 28078 ft | 464 kts | 350° |
| 2026-05-05 19:34 | 40.63948 | -8.60972 | 28080 ft | 464 kts | 350° |
| 2026-05-05 19:35 | 40.73542 | -8.62145 | 28083 ft | 463 kts | 350° |
| 2026-05-05 19:35 | 40.79961 | -8.62936 | 28086 ft | 463 kts | 350° |
| 2026-05-05 19:36 | 40.86374 | -8.63724 | 28084 ft | 462 kts | 350° |
| 2026-05-05 19:36 | 40.92782 | -8.64511 | 28084 ft | 462 kts | 350° |
| 2026-05-05 19:37 | 40.99181 | -8.65292 | 28083 ft | 462 kts | 350° |
| 2026-05-05 19:37 | 41.05581 | -8.66086 | 28084 ft | 461 kts | 350° |
| 2026-05-05 19:38 | 41.11974 | -8.66888 | 28085 ft | 461 kts | 350° |
| 2026-05-05 19:38 | 41.18364 | -8.67676 | 28088 ft | 461 kts | 350° |
| 2026-05-05 19:39 | 41.24565 | -8.69339 | 28084 ft | 450 kts | 334° |
| 2026-05-05 19:39 | 41.27329 | -8.71236 | 28083 ft | 444 kts | 323° |
| 2026-05-05 19:39 | 41.29723 | -8.73723 | 28087 ft | 440 kts | 314° |
| 2026-05-05 19:40 | 41.33543 | -8.80014 | 28081 ft | 434 kts | 304° |
| 2026-05-05 19:40 | 41.35298 | -8.83174 | 28523 ft | 418 kts | 304° |
| 2026-05-05 19:40 | 41.37012 | -8.86265 | 29183 ft | 413 kts | 304° |
| 2026-05-05 19:40 | 41.38709 | -8.89328 | 29801 ft | 409 kts | 304° |
| 2026-05-05 19:41 | 41.40391 | -8.92370 | 30315 ft | 407 kts | 304° |
| 2026-05-05 19:41 | 41.42062 | -8.95401 | 30718 ft | 406 kts | 304° |
| 2026-05-05 19:41 | 41.43728 | -8.98430 | 31098 ft | 405 kts | 304° |
| 2026-05-05 19:41 | 41.45397 | -9.01469 | 31474 ft | 405 kts | 304° |
| 2026-05-05 19:42 | 41.47064 | -9.04504 | 31857 ft | 405 kts | 304° |
| 2026-05-05 19:42 | 41.48732 | -9.07538 | 32246 ft | 405 kts | 304° |
| 2026-05-05 19:42 | 41.50398 | -9.10566 | 32627 ft | 405 kts | 304° |
| 2026-05-05 19:42 | 41.52067 | -9.13600 | 33004 ft | 405 kts | 304° |
| 2026-05-05 19:43 | 41.53734 | -9.16630 | 33391 ft | 405 kts | 304° |
| 2026-05-05 19:43 | 41.55397 | -9.19667 | 33778 ft | 405 kts | 304° |
| 2026-05-05 19:43 | 41.57056 | -9.22709 | 34153 ft | 405 kts | 303° |
| 2026-05-05 19:43 | 41.58713 | -9.25753 | 34463 ft | 405 kts | 303° |
| 2026-05-05 19:44 | 41.60349 | -9.28760 | 34753 ft | 405 kts | 303° |
| 2026-05-05 19:44 | 41.62010 | -9.31807 | 35038 ft | 406 kts | 304° |
| 2026-05-05 19:44 | 41.63673 | -9.34857 | 35311 ft | 406 kts | 304° |
| 2026-05-05 19:44 | 41.65335 | -9.37909 | 35578 ft | 406 kts | 304° |
| 2026-05-05 19:45 | 41.67001 | -9.40971 | 35843 ft | 407 kts | 304° |
| 2026-05-05 19:45 | 41.68665 | -9.44037 | 36039 ft | 408 kts | 304° |
| 2026-05-05 19:45 | 41.70340 | -9.47124 | 36092 ft | 413 kts | 304° |
| 2026-05-05 19:46 | 41.73734 | -9.53387 | 36094 ft | 417 kts | 304° |
| 2026-05-05 19:46 | 41.77147 | -9.59696 | 36092 ft | 418 kts | 304° |
| 2026-05-05 19:47 | 41.80560 | -9.66022 | 36096 ft | 419 kts | 304° |
| 2026-05-05 19:47 | 41.83951 | -9.72334 | 36097 ft | 413 kts | 304° |
| 2026-05-05 19:48 | 41.87284 | -9.78577 | 36109 ft | 411 kts | 304° |
| 2026-05-05 19:48 | 41.90602 | -9.84812 | 36112 ft | 411 kts | 304° |
| 2026-05-05 19:49 | 41.93899 | -9.91027 | 36118 ft | 411 kts | 304° |
| 2026-05-05 19:49 | 41.97208 | -9.97283 | 36118 ft | 411 kts | 303° |
| 2026-05-05 19:50 | 42.00520 | -10.03567 | 36111 ft | 415 kts | 303° |
| 2026-05-05 19:50 | 42.03902 | -10.10021 | 36108 ft | 428 kts | 303° |
| 2026-05-05 19:51 | 42.07359 | -10.16649 | 36106 ft | 436 kts | 303° |
| 2026-05-05 19:51 | 42.10843 | -10.23356 | 36112 ft | 438 kts | 303° |
| 2026-05-05 19:52 | 42.14326 | -10.30085 | 36116 ft | 438 kts | 303° |
| 2026-05-05 19:52 | 42.17804 | -10.36825 | 36120 ft | 438 kts | 303° |
| 2026-05-05 19:53 | 42.21283 | -10.43588 | 36125 ft | 439 kts | 303° |
| 2026-05-05 19:53 | 42.24759 | -10.50371 | 36137 ft | 440 kts | 303° |
| 2026-05-05 19:54 | 42.28239 | -10.57185 | 36139 ft | 440 kts | 303° |
| 2026-05-05 19:54 | 42.31690 | -10.63972 | 36145 ft | 440 kts | 303° |
| 2026-05-05 19:55 | 42.35151 | -10.70804 | 36148 ft | 441 kts | 303° |
| 2026-05-05 19:55 | 42.38610 | -10.77657 | 36153 ft | 441 kts | 303° |
| 2026-05-05 19:56 | 42.42083 | -10.84510 | 36147 ft | 442 kts | 307° |
| 2026-05-05 19:56 | 42.44235 | -10.87471 | 36153 ft | 443 kts | 322° |
| 2026-05-05 19:56 | 42.46913 | -10.89549 | 36153 ft | 447 kts | 337° |
| 2026-05-05 19:56 | 42.49943 | -10.90529 | 36148 ft | 452 kts | 353° |
| 2026-05-05 19:57 | 42.53093 | -10.90295 | 36149 ft | 458 kts | 9° |
| 2026-05-05 19:57 | 42.55118 | -10.89468 | 36147 ft | 462 kts | 20° |
| 2026-05-05 19:57 | 42.58757 | -10.86310 | 36140 ft | 469 kts | 36° |
| 2026-05-05 19:58 | 42.63801 | -10.80642 | 36130 ft | 471 kts | 37° |
| 2026-05-05 19:58 | 42.67993 | -10.75910 | 36143 ft | 472 kts | 37° |
| 2026-05-05 19:59 | 42.73052 | -10.70205 | 36148 ft | 473 kts | 37° |
| 2026-05-05 19:59 | 42.78941 | -10.63577 | 36157 ft | 473 kts | 37° |
| 2026-05-05 20:00 | 42.83185 | -10.58775 | 36147 ft | 473 kts | 37° |
| 2026-05-05 20:00 | 42.88249 | -10.53040 | 36151 ft | 473 kts | 37° |
| 2026-05-05 20:01 | 42.93305 | -10.47301 | 36149 ft | 473 kts | 37° |
| 2026-05-05 20:01 | 42.98368 | -10.41551 | 36147 ft | 473 kts | 37° |
| 2026-05-05 20:02 | 43.03425 | -10.35788 | 36150 ft | 473 kts | 37° |
| 2026-05-05 20:02 | 43.08476 | -10.30013 | 36148 ft | 473 kts | 37° |
| 2026-05-05 20:03 | 43.13516 | -10.24234 | 36149 ft | 473 kts | 37° |
| 2026-05-05 20:03 | 43.18523 | -10.18483 | 36149 ft | 472 kts | 37° |
| 2026-05-05 20:04 | 43.23558 | -10.12694 | 36142 ft | 472 kts | 37° |
| 2026-05-05 20:04 | 43.28587 | -10.06897 | 36139 ft | 472 kts | 37° |
| 2026-05-05 20:05 | 43.33612 | -10.01095 | 36140 ft | 472 kts | 37° |
| 2026-05-05 20:05 | 43.38632 | -9.95279 | 36140 ft | 471 kts | 37° |
| 2026-05-05 20:06 | 43.43641 | -9.89460 | 36137 ft | 471 kts | 37° |
| 2026-05-05 20:06 | 43.48647 | -9.83635 | 36137 ft | 471 kts | 37° |
| 2026-05-05 20:07 | 43.53622 | -9.77847 | 36136 ft | 471 kts | 37° |
| 2026-05-05 20:07 | 43.58614 | -9.72016 | 36135 ft | 470 kts | 37° |
| 2026-05-05 20:08 | 43.63602 | -9.66175 | 36132 ft | 470 kts | 37° |
| 2026-05-05 20:08 | 43.68578 | -9.60327 | 36130 ft | 470 kts | 37° |
| 2026-05-05 20:09 | 43.73549 | -9.54474 | 36132 ft | 469 kts | 37° |
| 2026-05-05 20:09 | 43.78516 | -9.48610 | 36127 ft | 469 kts | 37° |
| 2026-05-05 20:10 | 43.83475 | -9.42753 | 36128 ft | 469 kts | 37° |
| 2026-05-05 20:10 | 43.88431 | -9.36884 | 36124 ft | 468 kts | 37° |
| 2026-05-05 20:11 | 43.93385 | -9.31008 | 36132 ft | 468 kts | 37° |
| 2026-05-05 20:11 | 43.98324 | -9.25129 | 36131 ft | 468 kts | 38° |
| 2026-05-05 20:12 | 44.03260 | -9.19240 | 36121 ft | 467 kts | 38° |
| 2026-05-05 20:12 | 44.08191 | -9.13346 | 36124 ft | 467 kts | 38° |
| 2026-05-05 20:13 | 44.13110 | -9.07450 | 36116 ft | 467 kts | 38° |
| 2026-05-05 20:13 | 44.18028 | -9.01550 | 36124 ft | 466 kts | 38° |
| 2026-05-05 20:14 | 44.22902 | -8.95681 | 36115 ft | 466 kts | 38° |
| 2026-05-05 20:14 | 44.27801 | -8.89768 | 36118 ft | 465 kts | 38° |
| 2026-05-05 20:15 | 44.32694 | -8.83844 | 36116 ft | 465 kts | 38° |
| 2026-05-05 20:15 | 44.37471 | -8.77749 | 36117 ft | 466 kts | 41° |
| 2026-05-05 20:16 | 44.41973 | -8.71220 | 36118 ft | 466 kts | 44° |
| 2026-05-05 20:16 | 44.46394 | -8.64589 | 36117 ft | 466 kts | 43° |
| 2026-05-05 20:17 | 44.50860 | -8.58030 | 36115 ft | 465 kts | 43° |
| 2026-05-05 20:17 | 44.55366 | -8.51540 | 36113 ft | 464 kts | 42° |
| 2026-05-05 20:18 | 44.59872 | -8.45036 | 36117 ft | 464 kts | 43° |
| 2026-05-05 20:18 | 44.64322 | -8.38560 | 36111 ft | 464 kts | 43° |
| 2026-05-05 20:19 | 44.68791 | -8.32022 | 36111 ft | 463 kts | 43° |
| 2026-05-05 20:19 | 44.73244 | -8.25485 | 36105 ft | 463 kts | 43° |
| 2026-05-05 20:20 | 44.77696 | -8.18943 | 36100 ft | 462 kts | 43° |
| 2026-05-05 20:20 | 44.82147 | -8.12402 | 36101 ft | 462 kts | 43° |
| 2026-05-05 20:21 | 44.86592 | -8.05858 | 36100 ft | 462 kts | 43° |
| 2026-05-05 20:21 | 44.91036 | -7.99300 | 36098 ft | 462 kts | 43° |
| 2026-05-05 20:22 | 44.95478 | -7.92721 | 36101 ft | 462 kts | 44° |
| 2026-05-05 20:22 | 44.99922 | -7.86160 | 36094 ft | 462 kts | 43° |
| 2026-05-05 20:23 | 45.04545 | -7.79858 | 36094 ft | 461 kts | 40° |
| 2026-05-05 20:23 | 45.09211 | -7.73724 | 36093 ft | 461 kts | 40° |
| 2026-05-05 20:24 | 45.13873 | -7.67491 | 36090 ft | 461 kts | 41° |
| 2026-05-05 20:24 | 45.18499 | -7.61185 | 36094 ft | 461 kts | 41° |
| 2026-05-05 20:25 | 45.23108 | -7.54851 | 36089 ft | 461 kts | 42° |
| 2026-05-05 20:25 | 45.27726 | -7.48524 | 36088 ft | 461 kts | 41° |
| 2026-05-05 20:26 | 45.32349 | -7.42203 | 36082 ft | 461 kts | 42° |
| 2026-05-05 20:26 | 45.36966 | -7.35863 | 36088 ft | 461 kts | 42° |
| 2026-05-05 20:27 | 45.41578 | -7.29513 | 36087 ft | 461 kts | 42° |
| 2026-05-05 20:27 | 45.46182 | -7.23151 | 36088 ft | 461 kts | 42° |
| 2026-05-05 20:28 | 45.50791 | -7.16786 | 36083 ft | 461 kts | 42° |
| 2026-05-05 20:28 | 45.55389 | -7.10415 | 36084 ft | 461 kts | 42° |
| 2026-05-05 20:29 | 45.59944 | -7.04085 | 36078 ft | 460 kts | 43° |
| 2026-05-05 20:29 | 45.64530 | -6.97703 | 36085 ft | 459 kts | 43° |
| 2026-05-05 20:30 | 45.69098 | -6.91311 | 36076 ft | 459 kts | 43° |
| 2026-05-05 20:30 | 45.73652 | -6.84921 | 36077 ft | 458 kts | 43° |
| 2026-05-05 20:31 | 45.78204 | -6.78524 | 36072 ft | 458 kts | 43° |
| 2026-05-05 20:31 | 45.82750 | -6.72129 | 36070 ft | 458 kts | 43° |
| 2026-05-05 20:32 | 45.87298 | -6.65724 | 36064 ft | 458 kts | 43° |
| 2026-05-05 20:32 | 45.91836 | -6.59310 | 36063 ft | 458 kts | 43° |
| 2026-05-05 20:33 | 45.96366 | -6.52893 | 36062 ft | 458 kts | 43° |
| 2026-05-05 20:33 | 46.00895 | -6.46459 | 36058 ft | 457 kts | 43° |
| 2026-05-05 20:34 | 46.05421 | -6.40019 | 36057 ft | 457 kts | 43° |
| 2026-05-05 20:34 | 46.09930 | -6.33560 | 36057 ft | 457 kts | 44° |
| 2026-05-05 20:35 | 46.14437 | -6.27101 | 36056 ft | 457 kts | 44° |
| 2026-05-05 20:35 | 46.18914 | -6.20680 | 36053 ft | 456 kts | 44° |
| 2026-05-05 20:36 | 46.23416 | -6.14220 | 36053 ft | 456 kts | 43° |
| 2026-05-05 20:36 | 46.27917 | -6.07753 | 36046 ft | 456 kts | 44° |
| 2026-05-05 20:37 | 46.32397 | -6.01265 | 36048 ft | 456 kts | 44° |
| 2026-05-05 20:37 | 46.36867 | -5.94766 | 36042 ft | 456 kts | 44° |
| 2026-05-05 20:38 | 46.41345 | -5.88265 | 36042 ft | 455 kts | 44° |
| 2026-05-05 20:38 | 46.45819 | -5.81768 | 36041 ft | 455 kts | 44° |
| 2026-05-05 20:39 | 46.50286 | -5.75259 | 36034 ft | 455 kts | 44° |
| 2026-05-05 20:39 | 46.54746 | -5.68733 | 36034 ft | 455 kts | 44° |
| 2026-05-05 20:40 | 46.59200 | -5.62191 | 36034 ft | 455 kts | 44° |
| 2026-05-05 20:40 | 46.63689 | -5.55714 | 36033 ft | 454 kts | 42° |
| 2026-05-05 20:41 | 46.68427 | -5.49629 | 36027 ft | 454 kts | 39° |
| 2026-05-05 20:41 | 46.73259 | -5.43698 | 36030 ft | 454 kts | 39° |
| 2026-05-05 20:42 | 46.78018 | -5.37721 | 36027 ft | 454 kts | 40° |
| 2026-05-05 20:42 | 46.82754 | -5.31612 | 36024 ft | 454 kts | 40° |
| 2026-05-05 20:43 | 46.87479 | -5.25490 | 36026 ft | 454 kts | 40° |
| 2026-05-05 20:43 | 46.92227 | -5.19372 | 36025 ft | 454 kts | 40° |
| 2026-05-05 20:44 | 46.96971 | -5.13262 | 36020 ft | 454 kts | 40° |
| 2026-05-05 20:44 | 47.01712 | -5.07140 | 36024 ft | 454 kts | 40° |
| 2026-05-05 20:45 | 47.08940 | -4.98152 | 36019 ft | 453 kts | 32° |
| 2026-05-05 20:45 | 47.14308 | -4.93298 | 36019 ft | 453 kts | 31° |
| 2026-05-05 20:46 | 47.18778 | -4.89276 | 36025 ft | 453 kts | 31° |
| 2026-05-05 20:46 | 47.25025 | -4.83633 | 36021 ft | 453 kts | 31° |
| 2026-05-05 20:47 | 47.29529 | -4.79545 | 36025 ft | 454 kts | 31° |
| 2026-05-05 20:47 | 47.34868 | -4.74694 | 36015 ft | 454 kts | 31° |
| 2026-05-05 20:48 | 47.40245 | -4.69794 | 36020 ft | 454 kts | 31° |
| 2026-05-05 20:48 | 47.45616 | -4.64882 | 36024 ft | 454 kts | 31° |
| 2026-05-05 20:49 | 47.50308 | -4.60578 | 36023 ft | 455 kts | 31° |
| 2026-05-05 20:49 | 47.55087 | -4.56214 | 36003 ft | 454 kts | 31° |
| 2026-05-05 20:50 | 47.60421 | -4.51307 | 35998 ft | 454 kts | 31° |
| 2026-05-05 20:50 | 47.65788 | -4.46356 | 36002 ft | 454 kts | 31° |
| 2026-05-05 20:51 | 47.71157 | -4.41410 | 36000 ft | 454 kts | 31° |
| 2026-05-05 20:51 | 47.76532 | -4.36451 | 36003 ft | 455 kts | 31° |
| 2026-05-05 20:52 | 47.81571 | -4.30790 | 36006 ft | 457 kts | 46° |
| 2026-05-05 20:52 | 47.85163 | -4.22998 | 36008 ft | 459 kts | 60° |
| 2026-05-05 20:53 | 47.88220 | -4.14643 | 36012 ft | 460 kts | 60° |
| 2026-05-05 20:53 | 47.91299 | -4.06270 | 36014 ft | 461 kts | 60° |
| 2026-05-05 20:54 | 47.94371 | -3.97876 | 36016 ft | 461 kts | 60° |
| 2026-05-05 20:54 | 47.97417 | -3.89510 | 36016 ft | 462 kts | 61° |
| 2026-05-05 20:55 | 48.00471 | -3.81072 | 36010 ft | 462 kts | 61° |
| 2026-05-05 20:55 | 48.03531 | -3.72609 | 36015 ft | 462 kts | 61° |
| 2026-05-05 20:56 | 48.06586 | -3.64143 | 36003 ft | 463 kts | 61° |
| 2026-05-05 20:56 | 48.09639 | -3.55651 | 36003 ft | 463 kts | 61° |
| 2026-05-05 20:57 | 48.12693 | -3.47155 | 36004 ft | 463 kts | 61° |
| 2026-05-05 20:57 | 48.15708 | -3.38707 | 36002 ft | 463 kts | 61° |
| 2026-05-05 20:58 | 48.18738 | -3.30177 | 36006 ft | 464 kts | 62° |
| 2026-05-05 20:58 | 48.21757 | -3.21634 | 35998 ft | 464 kts | 62° |
| 2026-05-05 20:59 | 48.24785 | -3.13078 | 35997 ft | 464 kts | 62° |
| 2026-05-05 20:59 | 48.27814 | -3.04520 | 35993 ft | 464 kts | 62° |
| 2026-05-05 21:00 | 48.30833 | -2.95954 | 35994 ft | 464 kts | 62° |
| 2026-05-05 21:00 | 48.33838 | -2.87354 | 35990 ft | 464 kts | 62° |
| 2026-05-05 21:01 | 48.36832 | -2.78741 | 35997 ft | 465 kts | 62° |
| 2026-05-05 21:01 | 48.39828 | -2.70123 | 35994 ft | 465 kts | 62° |
| 2026-05-05 21:02 | 48.42825 | -2.61487 | 35989 ft | 466 kts | 62° |
| 2026-05-05 21:02 | 48.45908 | -2.52975 | 35990 ft | 466 kts | 55° |
| 2026-05-05 21:03 | 48.50081 | -2.45497 | 35988 ft | 466 kts | 48° |
| 2026-05-05 21:03 | 48.54397 | -2.38196 | 35985 ft | 466 kts | 48° |
| 2026-05-05 21:04 | 48.58706 | -2.30859 | 35989 ft | 467 kts | 49° |
| 2026-05-05 21:04 | 48.63007 | -2.23518 | 35991 ft | 467 kts | 49° |
| 2026-05-05 21:05 | 48.67310 | -2.16143 | 35996 ft | 467 kts | 49° |
| 2026-05-05 21:05 | 48.71613 | -2.08766 | 35995 ft | 467 kts | 49° |
| 2026-05-05 21:06 | 48.75912 | -2.01379 | 35987 ft | 467 kts | 49° |
| 2026-05-05 21:06 | 48.80203 | -1.93978 | 35980 ft | 467 kts | 49° |
| 2026-05-05 21:07 | 48.84491 | -1.86567 | 35977 ft | 467 kts | 49° |
| 2026-05-05 21:07 | 48.89129 | -1.79695 | 35977 ft | 468 kts | 35° |
| 2026-05-05 21:08 | 48.91953 | -1.77250 | 35970 ft | 468 kts | 24° |
| 2026-05-05 21:08 | 48.95030 | -1.75643 | 35970 ft | 469 kts | 13° |
| 2026-05-05 21:08 | 49.01478 | -1.74758 | 35963 ft | 470 kts | 2° |
| 2026-05-05 21:09 | 49.08012 | -1.74516 | 35969 ft | 470 kts | 1° |
| 2026-05-05 21:09 | 49.14560 | -1.74285 | 35974 ft | 471 kts | 1° |
| 2026-05-05 21:10 | 49.21108 | -1.74039 | 35977 ft | 471 kts | 1° |
| 2026-05-05 21:10 | 49.27658 | -1.73792 | 35976 ft | 471 kts | 1° |
| 2026-05-05 21:11 | 49.34206 | -1.73546 | 35981 ft | 471 kts | 1° |
| 2026-05-05 21:11 | 49.40763 | -1.73294 | 35986 ft | 471 kts | 1° |
| 2026-05-05 21:12 | 49.47304 | -1.73023 | 35982 ft | 470 kts | 1° |
| 2026-05-05 21:12 | 49.53855 | -1.72762 | 35992 ft | 470 kts | 1° |
| 2026-05-05 21:13 | 49.60351 | -1.72512 | 35983 ft | 470 kts | 1° |
| 2026-05-05 21:13 | 49.66878 | -1.72059 | 35997 ft | 469 kts | 3° |
| 2026-05-05 21:14 | 49.73403 | -1.71430 | 35993 ft | 469 kts | 4° |
| 2026-05-05 21:14 | 49.79918 | -1.70812 | 35988 ft | 469 kts | 3° |
| 2026-05-05 21:15 | 49.86444 | -1.70265 | 35988 ft | 469 kts | 2° |
| 2026-05-05 21:15 | 49.92975 | -1.69747 | 35981 ft | 469 kts | 2° |
| 2026-05-05 21:16 | 49.99487 | -1.69061 | 35612 ft | 470 kts | 9° |
| 2026-05-05 21:16 | 50.02637 | -1.67875 | 35325 ft | 465 kts | 18° |
| 2026-05-05 21:16 | 50.05721 | -1.66342 | 35040 ft | 466 kts | 17° |
| 2026-05-05 21:17 | 50.08823 | -1.64828 | 34290 ft | 467 kts | 17° |
| 2026-05-05 21:17 | 50.11883 | -1.63356 | 33392 ft | 466 kts | 17° |
| 2026-05-05 21:17 | 50.14990 | -1.61870 | 32420 ft | 467 kts | 17° |
| 2026-05-05 21:17 | 50.18097 | -1.60375 | 31453 ft | 468 kts | 17° |
| 2026-05-05 21:18 | 50.21211 | -1.58866 | 30558 ft | 470 kts | 17° |
| 2026-05-05 21:18 | 50.24336 | -1.57343 | 30022 ft | 472 kts | 17° |
| 2026-05-05 21:18 | 50.27482 | -1.55805 | 29313 ft | 474 kts | 17° |
| 2026-05-05 21:18 | 50.30636 | -1.54260 | 28682 ft | 476 kts | 17° |
| 2026-05-05 21:19 | 50.33799 | -1.52713 | 28019 ft | 477 kts | 17° |
| 2026-05-05 21:19 | 50.36977 | -1.51158 | 27368 ft | 478 kts | 17° |
| 2026-05-05 21:19 | 50.40154 | -1.49596 | 26706 ft | 479 kts | 17° |
| 2026-05-05 21:19 | 50.43339 | -1.48034 | 26042 ft | 479 kts | 17° |
| 2026-05-05 21:20 | 50.46506 | -1.46477 | 25386 ft | 475 kts | 17° |
| 2026-05-05 21:20 | 50.49647 | -1.44932 | 24728 ft | 471 kts | 17° |
| 2026-05-05 21:20 | 50.52755 | -1.43382 | 24098 ft | 466 kts | 18° |
| 2026-05-05 21:20 | 50.55689 | -1.41283 | 23482 ft | 462 kts | 27° |
| 2026-05-05 21:21 | 50.58494 | -1.38869 | 22827 ft | 458 kts | 27° |
| 2026-05-05 21:21 | 50.61285 | -1.36467 | 22255 ft | 455 kts | 27° |
| 2026-05-05 21:21 | 50.64048 | -1.34090 | 21694 ft | 451 kts | 28° |
| 2026-05-05 21:21 | 50.66789 | -1.31731 | 21148 ft | 448 kts | 28° |
| 2026-05-05 21:22 | 50.69517 | -1.29378 | 20596 ft | 444 kts | 28° |
| 2026-05-05 21:22 | 50.72213 | -1.27052 | 20031 ft | 441 kts | 28° |
| 2026-05-05 21:22 | 50.74892 | -1.24732 | 19444 ft | 437 kts | 28° |
| 2026-05-05 21:22 | 50.77530 | -1.22380 | 18863 ft | 433 kts | 30° |
| 2026-05-05 21:23 | 50.80086 | -1.19898 | 18254 ft | 429 kts | 32° |
| 2026-05-05 21:23 | 50.82540 | -1.17358 | 17606 ft | 425 kts | 33° |
| 2026-05-05 21:23 | 50.84983 | -1.14752 | 16992 ft | 421 kts | 34° |
| 2026-05-05 21:23 | 50.87400 | -1.12165 | 16370 ft | 418 kts | 33° |
| 2026-05-05 21:24 | 50.89802 | -1.09614 | 15758 ft | 414 kts | 33° |
| 2026-05-05 21:24 | 50.92093 | -1.07204 | 15170 ft | 410 kts | 33° |
| 2026-05-05 21:24 | 50.94481 | -1.04714 | 14562 ft | 406 kts | 33° |
| 2026-05-05 21:24 | 50.96830 | -1.02276 | 13945 ft | 402 kts | 32° |
| 2026-05-05 21:25 | 50.99166 | -0.99855 | 13284 ft | 399 kts | 33° |
| 2026-05-05 21:25 | 51.01300 | -0.97079 | 12702 ft | 399 kts | 45° |
| 2026-05-05 21:25 | 51.03168 | -0.93799 | 12185 ft | 400 kts | 47° |
| 2026-05-05 21:25 | 51.05010 | -0.90518 | 11659 ft | 397 kts | 47° |
| 2026-05-05 21:26 | 51.06836 | -0.87256 | 11127 ft | 393 kts | 47° |
| 2026-05-05 21:26 | 51.08642 | -0.84026 | 10606 ft | 385 kts | 47° |
| 2026-05-05 21:26 | 51.10351 | -0.80971 | 10279 ft | 354 kts | 47° |
| 2026-05-05 21:26 | 51.11918 | -0.78168 | 10107 ft | 325 kts | 46° |
| 2026-05-05 21:27 | 51.13341 | -0.75614 | 9984 ft | 300 kts | 46° |
| 2026-05-05 21:27 | 51.14696 | -0.73183 | 9736 ft | 288 kts | 46° |
| 2026-05-05 21:27 | 51.16011 | -0.70824 | 9607 ft | 283 kts | 46° |
| 2026-05-05 21:27 | 51.17316 | -0.68487 | 9461 ft | 282 kts | 46° |
| 2026-05-05 21:28 | 51.18620 | -0.66155 | 9170 ft | 281 kts | 46° |
| 2026-05-05 21:28 | 51.19670 | -0.64274 | 8897 ft | 280 kts | 46° |
| 2026-05-05 21:28 | 51.20964 | -0.61952 | 8554 ft | 279 kts | 47° |
| 2026-05-05 21:28 | 51.22250 | -0.59635 | 8208 ft | 279 kts | 47° |
| 2026-05-05 21:29 | 51.23530 | -0.57324 | 7862 ft | 278 kts | 47° |
| 2026-05-05 21:29 | 51.24809 | -0.55019 | 7530 ft | 277 kts | 47° |
| 2026-05-05 21:29 | 51.26081 | -0.52723 | 7286 ft | 273 kts | 47° |
| 2026-05-05 21:29 | 51.27447 | -0.50723 | 7157 ft | 262 kts | 28° |
| 2026-05-05 21:30 | 51.29154 | -0.49994 | 7043 ft | 252 kts | 359° |
| 2026-05-05 21:30 | 51.30800 | -0.50683 | 6958 ft | 242 kts | 330° |
| 2026-05-05 21:30 | 51.31998 | -0.52484 | 6974 ft | 238 kts | 303° |
| 2026-05-05 21:30 | 51.32627 | -0.54937 | 6975 ft | 240 kts | 290° |
| 2026-05-05 21:31 | 51.33137 | -0.57441 | 6977 ft | 240 kts | 289° |
| 2026-05-05 21:31 | 51.33659 | -0.60016 | 6973 ft | 240 kts | 289° |
| 2026-05-05 21:31 | 51.34174 | -0.62560 | 6975 ft | 240 kts | 289° |
| 2026-05-05 21:31 | 51.34682 | -0.65063 | 6969 ft | 238 kts | 289° |
| 2026-05-05 21:32 | 51.35189 | -0.67603 | 6730 ft | 236 kts | 289° |
| 2026-05-05 21:32 | 51.35672 | -0.70084 | 6473 ft | 231 kts | 289° |
| 2026-05-05 21:32 | 51.36138 | -0.72482 | 6235 ft | 226 kts | 289° |
| 2026-05-05 21:32 | 51.36595 | -0.74841 | 6012 ft | 219 kts | 289° |
| 2026-05-05 21:33 | 51.37288 | -0.76949 | 5697 ft | 214 kts | 314° |
| 2026-05-05 21:33 | 51.38475 | -0.78324 | 5348 ft | 210 kts | 340° |
| 2026-05-05 21:33 | 51.39894 | -0.78746 | 5017 ft | 207 kts | 359° |
| 2026-05-05 21:33 | 51.41338 | -0.78813 | 4681 ft | 207 kts | 359° |
| 2026-05-05 21:34 | 51.42778 | -0.78885 | 4343 ft | 207 kts | 359° |
| 2026-05-05 21:34 | 51.44221 | -0.78895 | 3931 ft | 210 kts | 8° |
| 2026-05-05 21:34 | 51.45592 | -0.78195 | 3671 ft | 204 kts | 30° |
| 2026-05-05 21:34 | 51.46356 | -0.77324 | 3570 ft | 196 kts | 43° |
| 2026-05-05 21:35 | 51.47175 | -0.75643 | 3405 ft | 188 kts | 62° |
| 2026-05-05 21:35 | 51.47581 | -0.73702 | 3214 ft | 186 kts | 81° |
| 2026-05-05 21:35 | 51.47630 | -0.71666 | 3001 ft | 180 kts | 88° |
| 2026-05-05 21:35 | 51.47642 | -0.69676 | 2737 ft | 176 kts | 88° |
| 2026-05-05 21:36 | 51.47653 | -0.67740 | 2499 ft | 171 kts | 88° |
| 2026-05-05 21:36 | 51.47664 | -0.65854 | 2272 ft | 167 kts | 88° |
| 2026-05-05 21:36 | 51.47674 | -0.64013 | 2047 ft | 163 kts | 88° |
| 2026-05-05 21:36 | 51.47684 | -0.62217 | 1827 ft | 158 kts | 88° |
| 2026-05-05 21:37 | 51.47693 | -0.60504 | 1613 ft | 150 kts | 88° |
| 2026-05-05 21:37 | 51.47701 | -0.58869 | 1419 ft | 142 kts | 89° |
| 2026-05-05 21:37 | 51.47708 | -0.57340 | 1231 ft | 134 kts | 89° |
| 2026-05-05 21:37 | 51.47716 | -0.55860 | 1041 ft | 132 kts | 88° |
| 2026-05-05 21:38 | 51.47722 | -0.54388 | 849 ft | 132 kts | 88° |
| 2026-05-05 21:38 | 51.47729 | -0.52922 | 670 ft | 131 kts | 88° |
| 2026-05-05 21:38 | 51.47736 | -0.51467 | 490 ft | 130 kts | 88° |
| 2026-05-05 21:38 | 51.47742 | -0.50027 | 320 ft | 128 kts | 88° |
| 2026-05-05 21:39 | 51.47749 | -0.48602 | 163 ft | 127 kts | 88° |
| 2026-05-05 21:39 | 51.47757 | -0.47243 | 92 ft | 110 kts | 89° |
| 2026-05-05 21:39 | 51.47763 | -0.46279 | 87 ft | 48 kts | 89° |
| 2026-05-05 21:39 | 51.47679 | -0.46114 | 88 ft | 13 kts | 149° |
| 2026-05-05 21:40 | 51.47648 | -0.46084 | 89 ft | 1 kts | 149° |
| 2026-05-05 21:40 | 51.47608 | -0.46078 | 87 ft | 13 kts | 208° |
| 2026-05-05 21:40 | 51.47595 | -0.46253 | 90 ft | 19 kts | 268° |
| 2026-05-05 21:40 | 51.47592 | -0.46477 | 87 ft | 21 kts | 270° |
| 2026-05-05 21:41 | 51.47593 | -0.46729 | 87 ft | 24 kts | 271° |
| 2026-05-05 21:41 | 51.47582 | -0.47012 | 87 ft | 27 kts | 258° |
| 2026-05-05 21:41 | 51.47581 | -0.47230 | 87 ft | 15 kts | 269° |
| 2026-05-05 21:41 | 51.47581 | -0.47412 | 89 ft | 18 kts | 270° |
| 2026-05-05 21:42 | 51.47580 | -0.47624 | 88 ft | 20 kts | 270° |
| 2026-05-05 21:42 | 51.47579 | -0.47867 | 90 ft | 23 kts | 270° |
| 2026-05-05 21:42 | 51.47579 | -0.48142 | 89 ft | 26 kts | 270° |
| 2026-05-05 21:42 | 51.47579 | -0.48408 | 90 ft | 9 kts | 269° |
| 2026-05-05 21:43 | 51.47541 | -0.48479 | 88 ft | 11 kts | 188° |
| 2026-05-05 21:43 | 51.47456 | -0.48478 | 87 ft | 14 kts | 180° |
| 2026-05-05 21:43 | 51.47350 | -0.48477 | 87 ft | 17 kts | 179° |
| 2026-05-05 21:43 | 51.47224 | -0.48475 | 87 ft | 17 kts | 180° |
| 2026-05-05 21:44 | 51.47200 | -0.48475 | 87 ft | 0 kts | 180° |
| 2026-05-05 21:44 | 51.47199 | -0.48475 | 87 ft | 0 kts | 180° |
| 2026-05-05 21:44 | 51.47187 | -0.48479 | 87 ft | 5 kts | 204° |
| 2026-05-05 21:45 | 51.47187 | -0.48540 | 87 ft | 2 kts | 273° |
| 2026-05-05 21:45 | 51.47187 | -0.48569 | 87 ft | 2 kts | 269° |
| 2026-05-05 21:45 | 51.47187 | -0.48593 | 87 ft | 1 kts | 269° |
| 2026-05-05 21:45 | 51.47187 | -0.48602 | 87 ft | 1 kts | 269° |